createdAt,value
2022-08-14T00:02:24.483Z,96130.75
2022-08-14T00:04:55.458Z,96123.78
2022-08-14T00:07:24.476Z,96122.59
2022-08-14T00:09:55.485Z,96121.66
2022-08-14T00:12:33.670Z,96113.84
2022-08-14T00:15:09.488Z,96104.84
2022-08-14T00:17:47.999Z,96106.59
2022-08-14T00:20:23.425Z,96115.09
2022-08-14T00:22:58.425Z,96105.44
2022-08-14T00:25:30.536Z,96111.38
2022-08-14T00:28:10.386Z,96106.03
2022-08-14T00:30:43.258Z,96100.38
2022-08-14T00:33:16.484Z,96098.47
2022-08-14T00:36:36.593Z,96095.56
2022-08-14T00:38:34.769Z,96098.25
2022-08-14T00:41:03.246Z,96091.41
2022-08-14T00:43:32.229Z,96087.69
2022-08-14T00:46:03.272Z,96083.41
2022-08-14T00:48:34.503Z,96089.91
2022-08-14T00:51:05.137Z,96081.41
2022-08-14T00:53:34.834Z,96083.56
2022-08-14T00:56:02.521Z,96073.66
2022-08-14T00:58:35.877Z,96084.44
2022-08-14T01:01:10.207Z,96081.72
2022-08-14T01:03:42.318Z,96067.53
2022-08-14T01:06:12.680Z,96066.66
2022-08-14T01:08:52.024Z,95951.09
2022-08-14T01:11:25.292Z,96070.13
2022-08-14T01:14:18.337Z,96069.09
2022-08-14T01:16:53.106Z,96063.91
2022-08-14T01:19:41.322Z,96065.56
2022-08-14T01:22:12.819Z,96068.72
2022-08-14T01:24:43.485Z,96059.69
2022-08-14T01:27:18.941Z,96056.78
2022-08-14T01:30:01.292Z,96065.88
2022-08-14T01:32:37.468Z,96064.97
2022-08-14T01:35:19.978Z,96064.84
2022-08-14T01:38:05.758Z,96057.34
2022-08-14T01:40:41.610Z,96057.97
2022-08-14T01:43:18.704Z,96044.59
2022-08-14T01:45:57.746Z,96048.38
2022-08-14T01:48:37.204Z,96044.84
2022-08-14T01:51:19.077Z,96044.63
2022-08-14T01:53:55.523Z,96041.41
2022-08-14T01:56:36.914Z,96043.75
2022-08-14T01:59:20.677Z,96048.91
2022-08-14T02:01:58.964Z,96041.47
2022-08-14T02:04:55.171Z,96045.66
2022-08-14T02:07:27.184Z,96040.81
2022-08-14T02:10:12.833Z,96042.28
2022-08-14T02:12:43.287Z,96039.91
2022-08-14T02:15:12.675Z,96041.59
2022-08-14T02:17:42.867Z,96036.16
2022-08-14T02:20:13.413Z,96038.47
2022-08-14T02:22:47.946Z,96029.81
2022-08-14T02:25:18.176Z,96017.28
2022-08-14T02:28:22.669Z,96025.72
2022-08-14T02:30:33.831Z,96024.03
2022-08-14T02:33:01.814Z,96015.19
2022-08-14T02:35:32.683Z,96018.94
2022-08-14T02:38:01.132Z,96015.03
2022-08-14T02:40:34.349Z,96006.28
2022-08-14T02:43:05.454Z,96001.41
2022-08-14T02:45:44.470Z,96000.00
2022-08-14T02:49:05.270Z,96000.59
2022-08-14T02:51:02.728Z,95998.38
2022-08-14T02:53:31.301Z,95988.19
2022-08-14T02:56:03.344Z,95985.00
2022-08-14T02:58:41.871Z,95985.41
2022-08-14T03:01:11.570Z,95984.69
2022-08-14T03:03:44.670Z,95982.78
2022-08-14T03:06:20.533Z,95978.25
2022-08-14T03:09:02.764Z,95979.97
2022-08-14T03:11:34.471Z,95977.31
2022-08-14T03:14:03.009Z,95980.03
2022-08-14T03:16:35.705Z,95971.59
2022-08-14T03:19:07.594Z,95974.00
2022-08-14T03:21:36.423Z,95966.44
2022-08-14T03:24:23.330Z,95970.03
2022-08-14T03:26:57.759Z,95955.69
2022-08-14T03:29:27.005Z,95953.97
2022-08-14T03:31:57.398Z,95952.16
2022-08-14T03:34:55.380Z,95944.81
2022-08-14T03:37:50.734Z,95950.38
2022-08-14T03:40:05.714Z,95950.78
2022-08-14T03:42:40.948Z,95945.16
2022-08-14T03:45:20.069Z,95943.28
2022-08-14T03:47:58.678Z,95937.06
2022-08-14T03:50:30.956Z,95938.16
2022-08-14T03:53:00.937Z,95941.00
2022-08-14T03:55:30.254Z,95946.44
2022-08-14T03:58:00.513Z,95943.19
2022-08-14T04:00:40.575Z,95946.22
2022-08-14T04:03:16.743Z,95942.00
2022-08-14T04:05:48.858Z,95935.84
2022-08-14T04:08:29.502Z,95935.53
2022-08-14T04:10:59.509Z,95930.44
2022-08-14T04:13:35.413Z,95932.78
2022-08-14T04:16:05.040Z,95933.09
2022-08-14T04:18:35.515Z,95927.44
2022-08-14T04:21:06.107Z,95927.56
2022-08-14T04:23:37.272Z,95925.50
2022-08-14T04:26:14.487Z,95921.16
2022-08-14T04:29:01.578Z,95917.59
2022-08-14T04:32:58.073Z,95915.41
2022-08-14T04:34:27.173Z,95911.53
2022-08-14T04:37:13.108Z,95921.16
2022-08-14T04:40:03.391Z,95920.50
2022-08-14T04:42:51.312Z,95924.91
2022-08-14T04:45:23.445Z,95924.19
2022-08-14T04:48:12.667Z,95924.94
2022-08-14T04:50:44.756Z,95928.19
2022-08-14T04:53:13.854Z,95929.53
2022-08-14T04:55:44.020Z,95934.44
2022-08-14T04:58:21.261Z,95935.22
2022-08-14T05:00:52.150Z,95936.31
2022-08-14T05:03:25.220Z,95931.28
2022-08-14T05:05:55.297Z,95920.69
2022-08-14T05:08:23.732Z,95925.97
2022-08-14T05:11:13.514Z,95926.97
2022-08-14T05:16:32.825Z,95935.63
2022-08-14T05:19:24.769Z,95932.88
2022-08-14T05:21:59.471Z,95925.50
2022-08-14T05:24:29.378Z,95924.72
2022-08-14T05:27:06.146Z,95914.88
2022-08-14T05:29:35.287Z,95921.81
2022-08-14T05:32:07.495Z,95919.81
2022-08-14T05:34:35.299Z,95919.34
2022-08-14T05:37:03.550Z,95917.94
2022-08-14T05:39:34.791Z,95918.47
2022-08-14T05:42:10.209Z,95906.03
2022-08-14T05:44:54.762Z,95910.63
2022-08-14T05:47:28.680Z,95912.44
2022-08-14T05:50:02.636Z,95910.66
2022-08-14T05:52:38.907Z,95916.22
2022-08-14T05:55:16.998Z,95922.22
2022-08-14T05:57:57.976Z,95917.69
2022-08-14T06:00:30.843Z,95904.56
2022-08-14T06:03:09.332Z,95913.78
2022-08-14T06:05:38.670Z,95922.75
2022-08-14T06:08:08.725Z,95913.28
2022-08-14T06:10:50.165Z,95907.50
2022-08-14T06:13:18.658Z,95897.56
2022-08-14T06:15:47.107Z,95889.56
2022-08-14T06:18:17.558Z,95884.25
2022-08-14T06:20:46.375Z,95887.47
2022-08-14T06:23:14.561Z,95890.16
2022-08-14T06:25:42.384Z,95886.16
2022-08-14T06:28:26.911Z,95876.28
2022-08-14T06:30:54.809Z,95882.66
2022-08-14T06:35:01.289Z,95876.13
2022-08-14T06:36:13.773Z,95879.13
2022-08-14T06:38:46.231Z,95873.03
2022-08-14T06:41:20.699Z,95864.75
2022-08-14T06:43:49.179Z,95866.84
2022-08-14T06:46:23.064Z,95855.31
2022-08-14T06:49:02.849Z,95864.81
2022-08-14T06:51:44.323Z,95854.28
2022-08-14T06:54:12.656Z,95841.38
2022-08-14T06:56:44.457Z,95845.19
2022-08-14T06:59:22.537Z,95845.63
2022-08-14T07:02:13.583Z,95635.34
2022-08-14T07:05:05.378Z,95835.47
2022-08-14T07:07:37.929Z,95828.94
2022-08-14T07:10:07.250Z,95821.75
2022-08-14T07:13:00.927Z,95827.47
2022-08-14T07:15:22.834Z,95825.22
2022-08-14T07:17:53.963Z,95832.50
2022-08-14T07:20:31.126Z,95834.44
2022-08-14T07:23:05.371Z,95841.16
2022-08-14T07:25:37.690Z,95841.00
2022-08-14T07:28:10.221Z,95836.06
2022-08-14T07:30:41.926Z,95835.47
2022-08-14T07:33:24.438Z,95843.19
2022-08-14T07:35:58.189Z,95847.59
2022-08-14T07:38:33.604Z,95855.19
2022-08-14T07:41:11.792Z,95854.56
2022-08-14T07:43:55.112Z,95850.19
2022-08-14T07:46:28.324Z,95837.53
2022-08-14T07:48:58.056Z,95846.13
2022-08-14T07:51:34.518Z,95846.31
2022-08-14T07:54:10.936Z,95833.72
2022-08-14T07:56:47.612Z,95838.22
2022-08-14T07:59:18.558Z,95839.78
2022-08-14T08:01:51.581Z,95842.56
2022-08-14T08:04:24.963Z,95840.56
2022-08-14T08:06:55.008Z,95840.09
2022-08-14T08:09:31.737Z,95837.25
2022-08-14T08:12:04.984Z,95841.94
2022-08-14T08:14:56.483Z,95838.94
2022-08-14T08:17:34.725Z,95835.53
2022-08-14T08:20:14.927Z,95832.63
2022-08-14T08:22:48.345Z,95830.72
2022-08-14T08:25:18.938Z,95824.16
2022-08-14T08:27:55.578Z,95823.97
2022-08-14T08:30:26.054Z,95822.41
2022-08-14T08:32:58.346Z,95829.41
2022-08-14T08:35:46.617Z,95824.44
2022-08-14T08:39:17.486Z,95832.19
2022-08-14T08:41:09.624Z,95839.31
2022-08-14T08:43:39.480Z,95827.41
2022-08-14T08:46:23.418Z,95830.59
2022-08-14T08:48:54.018Z,95818.75
2022-08-14T08:51:22.347Z,95809.22
2022-08-14T08:54:01.306Z,95814.63
2022-08-14T08:56:40.147Z,95815.94
2022-08-14T08:59:18.535Z,95815.22
2022-08-14T09:01:52.249Z,95801.56
2022-08-14T09:04:24.769Z,95806.50
2022-08-14T09:07:09.504Z,95799.41
2022-08-14T09:09:54.008Z,95800.28
2022-08-14T09:12:26.848Z,95794.59
2022-08-14T09:14:55.268Z,95792.28
2022-08-14T09:17:26.122Z,95793.06
2022-08-14T09:19:55.904Z,95797.72
2022-08-14T09:22:35.824Z,95809.63
2022-08-14T09:25:15.241Z,95804.31
2022-08-14T09:27:43.023Z,95803.94
2022-08-14T09:30:13.312Z,95798.53
2022-08-14T09:33:14.797Z,95834.47
2022-08-14T09:35:56.901Z,95806.84
2022-08-14T09:38:33.796Z,95802.47
2022-08-14T09:41:12.423Z,95807.53
2022-08-14T09:43:44.009Z,95802.25
2022-08-14T09:46:17.023Z,95795.66
2022-08-14T09:48:58.746Z,95787.97
2022-08-14T09:51:33.137Z,95779.50
2022-08-14T09:54:23.206Z,95782.22
2022-08-14T09:56:57.510Z,95783.88
2022-08-14T09:59:28.361Z,95779.03
2022-08-14T10:02:00.015Z,95765.53
2022-08-14T10:04:34.460Z,95758.47
2022-08-14T10:07:16.822Z,95765.19
2022-08-14T10:10:00.316Z,95763.25
2022-08-14T10:12:50.101Z,95757.84
2022-08-14T10:15:22.246Z,95750.81
2022-08-14T10:17:53.390Z,95732.88
2022-08-14T10:20:39.462Z,95728.66
2022-08-14T10:23:13.328Z,95733.69
2022-08-14T10:25:45.884Z,95740.31
2022-08-14T10:29:03.704Z,95734.88
2022-08-14T10:31:05.311Z,95731.75
2022-08-14T10:33:33.981Z,95729.44
2022-08-14T10:36:15.483Z,95719.97
2022-08-14T10:39:00.321Z,95705.00
2022-08-14T10:41:36.114Z,95708.47
2022-08-14T10:44:21.342Z,95712.25
2022-08-14T10:47:36.656Z,95710.69
2022-08-14T10:49:43.298Z,95700.59
2022-08-14T10:52:14.664Z,95707.59
2022-08-14T10:54:42.836Z,95702.88
2022-08-14T10:57:17.278Z,95699.50
2022-08-14T10:59:49.905Z,95682.59
2022-08-14T11:02:44.733Z,95683.94
2022-08-14T11:05:18.421Z,95691.09
2022-08-14T11:07:59.732Z,95688.03
2022-08-14T11:10:40.868Z,95685.66
2022-08-14T11:13:10.929Z,95692.31
2022-08-14T11:15:41.012Z,95682.28
2022-08-14T11:18:08.827Z,95690.19
2022-08-14T11:20:50.754Z,95683.22
2022-08-14T11:23:22.900Z,95695.69
2022-08-14T11:25:53.289Z,95687.59
2022-08-14T11:28:47.432Z,95688.16
2022-08-14T11:31:13.993Z,95694.44
2022-08-14T11:33:42.268Z,95705.81
2022-08-14T11:36:17.768Z,95706.50
2022-08-14T11:38:48.359Z,95682.25
2022-08-14T11:41:17.666Z,95679.28
2022-08-14T11:43:58.014Z,95674.47
2022-08-14T11:46:29.754Z,95678.16
2022-08-14T11:49:06.007Z,95671.22
2022-08-14T11:51:36.419Z,95666.53
2022-08-14T11:54:34.939Z,95654.28
2022-08-14T11:57:04.577Z,95664.44
2022-08-14T11:59:33.845Z,95663.13
2022-08-14T12:03:01.862Z,95657.22
2022-08-14T12:05:00.767Z,95654.41
2022-08-14T12:07:34.933Z,95648.72
2022-08-14T12:10:26.258Z,95657.88
2022-08-14T12:12:56.542Z,95651.97
2022-08-14T12:15:31.272Z,95639.22
2022-08-14T12:18:01.237Z,95644.75
2022-08-14T12:20:45.729Z,95636.78
2022-08-14T12:23:23.949Z,95636.06
2022-08-14T12:26:38.211Z,95626.56
2022-08-14T12:29:00.151Z,95632.16
2022-08-14T12:31:28.261Z,95627.16
2022-08-14T12:34:10.342Z,95630.59
2022-08-14T12:36:39.196Z,95618.47
2022-08-14T12:39:17.618Z,95615.53
2022-08-14T12:41:53.843Z,95621.31
2022-08-14T12:44:32.862Z,95619.22
2022-08-14T12:47:04.641Z,95598.88
2022-08-14T12:49:35.399Z,95593.81
2022-08-14T12:52:04.171Z,95594.53
2022-08-14T12:54:32.390Z,95590.72
2022-08-14T12:57:07.934Z,95581.13
2022-08-14T12:59:42.459Z,95575.19
2022-08-14T13:02:20.741Z,95569.19
2022-08-14T13:04:55.769Z,95570.31
2022-08-14T13:07:25.034Z,95570.91
2022-08-14T13:09:55.468Z,95563.97
2022-08-14T13:12:33.734Z,95563.50
2022-08-14T13:15:11.425Z,95570.88
2022-08-14T13:17:43.628Z,95533.00
2022-08-14T13:20:24.852Z,95552.72
2022-08-14T13:22:56.264Z,95554.44
2022-08-14T13:25:25.488Z,95546.16
2022-08-14T13:27:55.807Z,95550.84
2022-08-14T13:30:25.661Z,95550.09
2022-08-14T13:32:57.775Z,95551.81
2022-08-14T13:35:27.999Z,95550.50
2022-08-14T13:37:57.908Z,95538.59
2022-08-14T13:40:26.567Z,95538.06
2022-08-14T13:43:09.027Z,95531.75
2022-08-14T13:46:00.447Z,95529.31
2022-08-14T13:48:32.598Z,95532.66
2022-08-14T13:51:04.856Z,95527.31
2022-08-14T13:53:38.009Z,95522.16
2022-08-14T13:56:05.913Z,95521.59
2022-08-14T13:58:35.869Z,95523.53
2022-08-14T14:01:04.502Z,95509.31
2022-08-14T14:03:32.323Z,95510.84
2022-08-14T14:05:59.988Z,95508.09
2022-08-14T14:08:43.574Z,95494.38
2022-08-14T14:11:16.116Z,95500.16
2022-08-14T14:13:48.554Z,95489.47
2022-08-14T14:16:26.679Z,95485.47
2022-08-14T14:19:06.872Z,95496.09
2022-08-14T14:21:40.926Z,95488.91
2022-08-14T14:24:15.386Z,95489.19
2022-08-14T14:26:47.687Z,95295.09
2022-08-14T14:29:18.726Z,95485.75
2022-08-14T14:31:52.046Z,95475.78
2022-08-14T14:34:29.531Z,95480.84
2022-08-14T14:37:02.803Z,95477.97
2022-08-14T14:39:37.657Z,95472.13
2022-08-14T14:42:31.823Z,95475.25
2022-08-14T14:45:04.637Z,95467.19
2022-08-14T14:47:37.190Z,95466.03
2022-08-14T14:50:05.200Z,95467.09
2022-08-14T14:52:37.078Z,95466.06
2022-08-14T14:55:11.827Z,95464.31
2022-08-14T14:57:39.825Z,95468.16
2022-08-14T15:00:12.902Z,95463.38
2022-08-14T15:02:42.978Z,95457.97
2022-08-14T15:05:11.589Z,95455.88
2022-08-14T15:07:43.654Z,95450.69
2022-08-14T15:10:27.498Z,95449.25
2022-08-14T15:13:04.131Z,95458.88
2022-08-14T15:15:33.054Z,95443.78
2022-08-14T15:18:01.664Z,95444.81
2022-08-14T15:20:31.788Z,95446.66
2022-08-14T15:23:00.986Z,95443.72
2022-08-14T15:25:41.735Z,95441.41
2022-08-14T15:28:12.755Z,95443.34
2022-08-14T15:30:41.218Z,95446.34
2022-08-14T15:33:10.128Z,95457.03
2022-08-14T15:35:44.876Z,95445.47
2022-08-14T15:38:17.635Z,95449.63
2022-08-14T15:40:51.476Z,95445.97
2022-08-14T15:43:27.380Z,95448.69
2022-08-14T15:46:04.435Z,95441.34
2022-08-14T15:48:33.434Z,95450.16
2022-08-14T15:51:01.795Z,95450.88
2022-08-14T15:53:31.675Z,95445.13
2022-08-14T15:56:02.120Z,95450.81
2022-08-14T15:58:32.878Z,95451.75
2022-08-14T16:01:43.339Z,95451.28
2022-08-14T16:04:07.382Z,95445.25
2022-08-14T16:06:35.135Z,95442.53
2022-08-14T16:09:11.159Z,95447.16
2022-08-14T16:11:50.701Z,95444.50
2022-08-14T16:14:21.999Z,95448.19
2022-08-14T16:16:59.711Z,95451.75
2022-08-14T16:19:30.358Z,95448.84
2022-08-14T16:22:03.531Z,95456.38
2022-08-14T16:24:59.993Z,95451.72
2022-08-14T16:27:39.416Z,95453.22
2022-08-14T16:30:25.497Z,95449.19
2022-08-14T16:32:57.227Z,95441.44
2022-08-14T16:35:43.229Z,95444.81
2022-08-14T16:38:29.336Z,95441.28
2022-08-14T16:41:23.145Z,95447.06
2022-08-14T16:43:59.257Z,95446.19
2022-08-14T16:46:28.754Z,95442.00
2022-08-14T16:48:59.139Z,95440.16
2022-08-14T16:51:27.889Z,95450.28
2022-08-14T16:53:56.363Z,95445.06
2022-08-14T16:56:25.591Z,95453.97
2022-08-14T16:59:13.953Z,95453.66
2022-08-14T17:01:42.350Z,95454.72
2022-08-14T17:04:14.936Z,95451.44
2022-08-14T17:06:55.052Z,95456.69
2022-08-14T17:09:31.913Z,95451.13
2022-08-14T17:12:00.657Z,95463.13
2022-08-14T17:15:10.793Z,95460.94
2022-08-14T17:17:57.687Z,95458.03
2022-08-14T17:20:53.810Z,95453.81
2022-08-14T17:23:14.466Z,95451.44
2022-08-14T17:25:50.853Z,95451.41
2022-08-14T17:28:51.717Z,95450.59
2022-08-14T17:31:07.413Z,95454.72
2022-08-14T17:33:44.248Z,95445.28
2022-08-14T17:36:21.025Z,95442.28
2022-08-14T17:38:59.703Z,95441.31
2022-08-14T17:41:32.965Z,95439.94
2022-08-14T17:44:10.753Z,95444.19
2022-08-14T17:46:43.201Z,95452.31
2022-08-14T17:49:16.929Z,95445.34
2022-08-14T17:52:07.807Z,95444.09
2022-08-14T17:54:47.251Z,95444.81
2022-08-14T17:57:22.433Z,95444.66
2022-08-14T17:59:51.265Z,95446.41
2022-08-14T18:02:22.572Z,95444.09
2022-08-14T18:05:03.673Z,95447.16
2022-08-14T18:07:59.375Z,95443.28
2022-08-14T18:10:55.019Z,95437.91
2022-08-14T18:13:14.773Z,95444.91
2022-08-14T18:15:44.937Z,95444.78
2022-08-14T18:18:18.927Z,95447.34
2022-08-14T18:21:40.467Z,95452.00
2022-08-14T18:23:42.112Z,95451.53
2022-08-14T18:26:37.556Z,95448.81
2022-08-14T18:28:57.595Z,95447.19
2022-08-14T18:31:43.527Z,95458.22
2022-08-14T18:34:31.971Z,95455.00
2022-08-14T18:37:13.903Z,95449.66
2022-08-14T18:40:01.901Z,95452.75
2022-08-14T18:42:41.032Z,95459.41
2022-08-14T18:45:15.515Z,95470.28
2022-08-14T18:48:14.323Z,95466.00
2022-08-14T18:50:47.592Z,95461.75
2022-08-14T18:53:18.043Z,95465.94
2022-08-14T18:55:53.716Z,95464.84
2022-08-14T18:58:31.692Z,95460.59
2022-08-14T19:01:02.448Z,95469.13
2022-08-14T19:03:56.179Z,95468.34
2022-08-14T19:06:44.696Z,95471.34
2022-08-14T19:09:31.323Z,95481.44
2022-08-14T19:12:05.027Z,95483.75
2022-08-14T19:14:46.172Z,95477.94
2022-08-14T19:17:41.580Z,95475.59
2022-08-14T19:20:10.117Z,95481.22
2022-08-14T19:22:39.627Z,95480.59
2022-08-14T19:25:08.348Z,95483.97
2022-08-14T19:27:44.283Z,95488.97
2022-08-14T19:30:23.354Z,95254.03
2022-08-14T19:32:55.670Z,95484.19
2022-08-14T19:35:55.425Z,95486.72
2022-08-14T19:38:49.070Z,95480.44
2022-08-14T19:41:22.031Z,95481.03
2022-08-14T19:43:57.066Z,95489.88
2022-08-14T19:46:38.432Z,95481.91
2022-08-14T19:49:22.997Z,95481.97
2022-08-14T19:52:20.763Z,95484.94
2022-08-14T19:54:50.464Z,95485.94
2022-08-14T19:57:24.639Z,95481.41
2022-08-14T20:00:01.984Z,95488.28
2022-08-14T20:02:32.417Z,95481.34
2022-08-14T20:05:11.373Z,95492.53
2022-08-14T20:07:59.507Z,95485.56
2022-08-14T20:11:12.637Z,95487.09
2022-08-14T20:13:23.618Z,95479.88
2022-08-14T20:15:54.331Z,95482.75
2022-08-14T20:18:49.174Z,95476.38
2022-08-14T20:21:16.128Z,95476.22
2022-08-14T20:23:45.898Z,95488.06
2022-08-14T20:26:30.747Z,95490.50
2022-08-14T20:28:59.975Z,95488.66
2022-08-14T20:31:38.453Z,95475.91
2022-08-14T20:34:24.714Z,95498.34
2022-08-14T20:37:11.436Z,95485.69
2022-08-14T20:39:45.008Z,95488.22
2022-08-14T20:42:39.322Z,95490.13
2022-08-14T20:45:23.769Z,95501.09
2022-08-14T20:47:56.538Z,95498.63
2022-08-14T20:50:32.131Z,95504.78
2022-08-14T20:53:05.960Z,95504.63
2022-08-14T20:55:41.183Z,95507.97
2022-08-14T20:58:38.803Z,95500.66
2022-08-14T21:01:33.701Z,95502.31
2022-08-14T21:04:12.010Z,95505.97
2022-08-14T21:07:24.510Z,95512.09
2022-08-14T21:09:43.962Z,95526.78
2022-08-14T21:12:34.443Z,95524.78
2022-08-14T21:15:04.042Z,95521.63
2022-08-14T21:17:41.514Z,95527.28
2022-08-14T21:20:26.547Z,95526.91
2022-08-14T21:22:56.509Z,95521.72
2022-08-14T21:25:28.986Z,95523.72
2022-08-14T21:28:00.958Z,95520.69
2022-08-14T21:30:46.958Z,95529.13
2022-08-14T21:33:20.620Z,95527.53
2022-08-14T21:35:49.577Z,95520.72
2022-08-14T21:38:33.904Z,95533.94
2022-08-14T21:41:43.018Z,95530.25
2022-08-14T21:44:17.468Z,95526.44
2022-08-14T21:46:49.718Z,95532.94
2022-08-14T21:49:24.777Z,95523.84
2022-08-14T21:51:59.994Z,95528.06
2022-08-14T21:54:55.830Z,95525.59
2022-08-14T21:58:42.657Z,95520.66
2022-08-14T22:00:30.139Z,95535.78
2022-08-14T22:03:04.271Z,95526.31
2022-08-14T22:05:33.712Z,95527.91
2022-08-14T22:08:02.728Z,95535.03
2022-08-14T22:10:30.535Z,95537.28
2022-08-14T22:13:01.641Z,95538.94
2022-08-14T22:15:30.195Z,95539.91
2022-08-14T22:17:58.554Z,95544.53
2022-08-14T22:20:28.374Z,95537.56
2022-08-14T22:23:00.802Z,95538.88
2022-08-14T22:25:33.236Z,95538.00
2022-08-14T22:28:03.873Z,95534.53
2022-08-14T22:30:31.890Z,95540.44
2022-08-14T22:33:00.257Z,95545.84
2022-08-14T22:35:28.289Z,95538.91
2022-08-14T22:38:34.958Z,95540.16
2022-08-14T22:41:02.057Z,95533.22
2022-08-14T22:43:35.843Z,95534.16
2022-08-14T22:46:06.162Z,95539.50
2022-08-14T22:48:47.852Z,95542.22
2022-08-14T22:51:17.673Z,95534.00
2022-08-14T22:53:48.400Z,95543.22
2022-08-14T22:56:20.399Z,95545.50
2022-08-14T22:58:54.305Z,95537.53
2022-08-14T23:01:23.283Z,95534.06
2022-08-14T23:04:02.796Z,95532.69
2022-08-14T23:07:02.850Z,95527.81
2022-08-14T23:09:36.476Z,95528.31
2022-08-14T23:12:27.999Z,95528.94
2022-08-14T23:14:55.879Z,95523.69
2022-08-14T23:17:24.655Z,95528.06
2022-08-14T23:19:56.459Z,95533.03
2022-08-14T23:22:26.125Z,95529.72
2022-08-14T23:24:57.799Z,95533.75
2022-08-14T23:27:32.047Z,95540.69
2022-08-14T23:30:34.578Z,95570.75
2022-08-14T23:33:04.250Z,95554.88
2022-08-14T23:35:33.183Z,95545.56
2022-08-14T23:38:03.123Z,95540.97
2022-08-14T23:40:34.656Z,95544.06
2022-08-14T23:43:04.753Z,95546.50
2022-08-14T23:45:36.735Z,95549.16
2022-08-14T23:48:09.984Z,95548.16
2022-08-14T23:50:41.050Z,95541.69
2022-08-14T23:53:28.026Z,95541.03
2022-08-14T23:56:05.963Z,95527.94
2022-08-14T23:58:37.943Z,95533.06
